Home > Products > Valid Products > FWO

000
SHUS65 KGJT 292014
FWOGJT

DAILY FIRE WEATHER OBSERVATION
NATIONAL WEATHER SERVICE GRAND JUNCTION CO
212 PM MDT SUN MAY 29 2016

STATE OF THE WEATHER (W)               1
DRY BULB TEMPERATURE                   78   DEGREES FAHRENHEIT
RELATIVE HUMIDITY (RH)                 15   PERCENT
LIGHTNING ACTIVITY LEVEL
  (LAL - MIDNIGHT TO 2 PM)             2
WIND DIRECTION                         C    DEGREES (C IF CALM)
WIND SPEED                             0    MPH
MAX TEMP (2 PM - 2 PM)                 78   DEGREES FAHRENHEIT
MIN TEMP (2 PM - 2 PM)                 48   DEGREES FAHRENHEIT
MAX RH (2 PM - 2 PM)                   58   PERCENT
MIN RH (2 PM - 2 PM)                   15   PERCENT
PCPN DURATION                          0.0  HOURS
PCPN AMT (2 PM - 2 PM)                 0.0  INCHES
LAL (2 PM - 2 PM)                      2

$$

METAR KGJT 291953Z 00000KT 10SM CLR 26/M03 A3008 RMK AO2 SLP127
      T02561028





    US Dept of Commerce
    National Oceanic and Atmospheric Administration
    National Weather Service
    1325 East West Highway
    Silver Spring, MD 20910
    Page Author: NWS Internet Services Team
Disclaimer
Information Quality
Credits
Glossary
Privacy Policy
Freedom of Information Act (FOIA)
About Us
Career Opportunities